Time;durP1;ratioP1;P1;durP2;ratioP2;P2;SDS_P1;SDS_P2;PMS_P1;PMS_P2;Temp;Humidity;BMP_temperature;BMP_pressure;BME280_temperature;BME280_humidity;BME280_pressure;Samples;Min_cycle;Max_cycle;Signal;HPM_P1;HPM_P2
2023/03/23 00:02:35;;;;;;;8.77;1.15;;;11.70;99.90;;;;;;5073593;28;20490;-82
2023/03/23 00:05:04;;;;;;;0.43;0.28;;;10.70;99.90;;;;;;5074174;28;20044;-81
2023/03/23 00:07:30;;;;;;;1.95;1.75;;;10.70;99.90;;;;;;5074246;28;20043;-81
2023/03/23 00:09:56;;;;;;;0.35;0.35;;;10.70;99.90;;;;;;5074556;28;20032;-81
2023/03/23 00:12:28;;;;;;;0.10;0.10;;;10.70;99.90;;;;;;5072987;28;20131;-82
2023/03/23 00:14:55;;;;;;;1.20;0.68;;;10.80;99.90;;;;;;5053451;28;20117;-81
2023/03/23 00:17:23;;;;;;;0.13;0.13;;;10.60;99.90;;;;;;5053568;28;20049;-82
2023/03/23 00:19:49;;;;;;;0.60;0.45;;;10.70;99.90;;;;;;5052592;28;20059;-82
2023/03/23 00:22:20;;;;;;;2.05;1.02;;;10.70;99.90;;;;;;5050832;28;20048;-81
2023/03/23 00:24:50;;;;;;;1.10;1.00;;;10.80;99.90;;;;;;5052586;28;20064;-82
2023/03/23 00:27:17;;;;;;;0.60;0.60;;;10.80;99.90;;;;;;5050328;28;20045;-81
2023/03/23 00:29:45;;;;;;;2.40;1.58;;;10.80;99.90;;;;;;5051510;28;20056;-82
2023/03/23 00:32:12;;;;;;;0.73;0.38;;;10.80;99.90;;;;;;5064581;28;20049;-82
2023/03/23 00:34:40;;;;;;;0.30;0.30;;;10.80;99.90;;;;;;5053884;28;20059;-83
2023/03/23 00:37:07;;;;;;;1.50;0.80;;;10.70;99.90;;;;;;5052501;28;20060;-82
2023/03/23 00:39:33;;;;;;;3.70;1.35;;;10.80;99.90;;;;;;5053450;28;20127;-82
2023/03/23 00:42:02;;;;;;;2.45;0.75;;;10.70;99.90;;;;;;5053098;28;20047;-82
2023/03/23 00:44:30;;;;;;;1.08;0.70;;;10.70;99.90;;;;;;5051532;28;20049;-82
2023/03/23 00:47:00;;;;;;;10.15;1.58;;;10.70;99.90;;;;;;5061184;28;20367;-82
2023/03/23 00:49:26;;;;;;;2.33;0.73;;;10.70;99.90;;;;;;5072326;28;20498;-82
2023/03/23 00:51:54;;;;;;;1.05;0.68;;;10.60;99.90;;;;;;5078857;28;20054;-82
2023/03/23 00:54:21;;;;;;;0.52;0.35;;;10.70;99.90;;;;;;5063959;28;20048;-83
2023/03/23 00:56:47;;;;;;;0.30;0.30;;;10.70;99.90;;;;;;5056685;28;20566;-83
2023/03/23 00:59:13;;;;;;;0.22;0.22;;;10.70;99.90;;;;;;5055338;28;20049;-83
2023/03/23 01:01:39;;;;;;;0.50;0.50;;;10.70;99.90;;;;;;5057350;28;20510;-83
2023/03/23 01:04:06;;;;;;;2.85;1.00;;;10.70;99.90;;;;;;5070842;28;20044;-83
2023/03/23 01:06:35;;;;;;;0.73;0.38;;;10.70;99.90;;;;;;5078927;28;20032;-83
2023/03/23 01:09:03;;;;;;;0.85;0.60;;;11.10;99.90;;;;;;5080133;28;20048;-82
2023/03/23 01:11:29;;;;;;;1.75;0.77;;;10.60;99.90;;;;;;5079661;28;20054;-83
2023/03/23 01:13:55;;;;;;;0.73;0.65;;;10.50;99.90;;;;;;5061880;28;20845;-83
2023/03/23 01:16:21;;;;;;;0.82;0.68;;;10.60;99.90;;;;;;5079479;28;20131;-83
2023/03/23 01:18:47;;;;;;;0.98;0.95;;;10.60;99.90;;;;;;5080762;28;20051;-82
2023/03/23 01:21:16;;;;;;;1.52;0.90;;;10.60;99.90;;;;;;5079228;28;20088;-83
2023/03/23 01:23:43;;;;;;;0.70;0.68;;;10.60;99.90;;;;;;5064495;28;20095;-82
2023/03/23 01:26:15;;;;;;;0.65;0.65;;;10.60;99.90;;;;;;5059615;28;20052;-82
2023/03/23 01:28:42;;;;;;;0.22;0.22;;;10.60;99.90;;;;;;5059534;28;20649;-82
2023/03/23 01:31:11;;;;;;;0.70;0.70;;;10.50;99.90;;;;;;5057894;28;20049;-82
2023/03/23 01:33:39;;;;;;;6.00;1.38;;;10.40;99.90;;;;;;5057732;28;20088;-82
2023/03/23 01:36:07;;;;;;;0.50;0.50;;;10.40;99.90;;;;;;5057668;28;20040;-82
2023/03/23 01:38:34;;;;;;;0.50;0.45;;;10.40;99.90;;;;;;5057881;28;20084;-82
2023/03/23 01:41:01;;;;;;;1.15;1.00;;;10.40;99.90;;;;;;5058480;28;20124;-82
2023/03/23 01:43:26;;;;;;;0.28;0.20;;;10.40;99.90;;;;;;5058778;28;20053;-82
2023/03/23 01:45:52;;;;;;;0.00;0.00;;;10.30;99.90;;;;;;5060140;28;20129;-83
2023/03/23 01:48:27;;;;;;;1.88;0.93;;;10.30;99.90;;;;;;5059350;28;20045;-82
2023/03/23 01:50:58;;;;;;;0.80;0.38;;;10.30;99.90;;;;;;5059350;28;20041;-82
2023/03/23 01:53:30;;;;;;;1.45;1.00;;;10.30;99.90;;;;;;5070348;28;20072;-82
2023/03/23 01:55:57;;;;;;;1.00;0.80;;;10.30;99.90;;;;;;5080174;28;20055;-83
2023/03/23 01:58:28;;;;;;;0.20;0.20;;;10.30;99.90;;;;;;5079264;28;20076;-82
2023/03/23 02:00:56;;;;;;;0.00;0.00;;;10.30;99.90;;;;;;5079335;28;20052;-82
2023/03/23 02:03:23;;;;;;;0.00;0.00;;;10.30;99.90;;;;;;5064859;28;20045;-82
2023/03/23 02:05:50;;;;;;;1.73;0.77;;;10.40;99.90;;;;;;5056546;28;20110;-82
2023/03/23 02:08:18;;;;;;;0.63;0.45;;;10.40;99.90;;;;;;5055523;28;20088;-82
2023/03/23 02:10:44;;;;;;;0.10;0.10;;;10.40;99.90;;;;;;5056573;28;20048;-82
2023/03/23 02:13:12;;;;;;;0.10;0.10;;;10.40;99.90;;;;;;5063761;28;20086;-82
2023/03/23 02:15:51;;;;;;;1.17;0.75;;;10.40;99.90;;;;;;5076102;28;20105;-82
2023/03/23 02:18:37;;;;;;;0.00;0.00;;;10.40;99.90;;;;;;5076474;28;20048;-83
2023/03/23 02:21:37;;;;;;;0.70;0.43;;;10.30;99.90;;;;;;5076483;28;20063;-82
2023/03/23 02:24:30;;;;;;;1.75;0.77;;;10.40;99.90;;;;;;5060764;28;20045;-83
2023/03/23 02:27:25;;;;;;;0.20;0.20;;;10.40;99.90;;;;;;5055256;28;20044;-82
2023/03/23 02:30:06;;;;;;;0.10;0.10;;;10.40;99.90;;;;;;5054347;28;20514;-83
2023/03/23 02:32:53;;;;;;;0.13;0.10;;;10.30;99.90;;;;;;5055662;28;20116;-83
2023/03/23 02:35:24;;;;;;;0.20;0.20;;;10.30;99.90;;;;;;5053487;28;20094;-83
2023/03/23 02:37:56;;;;;;;0.38;0.38;;;10.30;99.90;;;;;;5055262;28;20581;-82
2023/03/23 02:40:30;;;;;;;0.20;0.20;;;10.30;99.90;;;;;;5054631;28;20374;-82
2023/03/23 02:42:57;;;;;;;0.50;0.40;;;10.30;99.90;;;;;;5059877;28;20088;-83
2023/03/23 02:45:25;;;;;;;1.10;1.00;;;10.80;99.90;;;;;;5073452;28;20052;-83
2023/03/23 02:47:54;;;;;;;0.03;0.03;;;10.20;99.90;;;;;;5073791;28;20048;-83
2023/03/23 02:50:23;;;;;;;0.00;0.00;;;10.20;99.90;;;;;;5073149;28;20044;-83
2023/03/23 02:52:50;;;;;;;0.73;0.10;;;10.20;99.90;;;;;;5068560;28;20159;-83
2023/03/23 02:55:18;;;;;;;0.20;0.20;;;10.20;99.90;;;;;;5052946;28;20113;-83
2023/03/23 02:57:45;;;;;;;0.73;0.55;;;10.30;99.90;;;;;;5052859;28;20049;-83
2023/03/23 03:00:13;;;;;;;9.23;0.40;;;10.30;99.90;;;;;;5052042;28;20049;-83
2023/03/23 03:02:47;;;;;;;0.00;0.00;;;10.30;99.90;;;;;;5050531;28;20072;-83
2023/03/23 03:05:31;;;;;;;0.13;0.08;;;10.30;99.90;;;;;;5053165;28;20078;-83
2023/03/23 03:08:29;;;;;;;0.30;0.30;;;10.30;99.90;;;;;;5052560;28;20040;-84
2023/03/23 03:11:12;;;;;;;0.13;0.13;;;10.30;99.90;;;;;;5070161;28;20120;-83
2023/03/23 03:13:51;;;;;;;0.10;0.10;;;10.30;99.90;;;;;;5071167;28;20080;-83
2023/03/23 03:16:22;;;;;;;0.03;0.03;;;10.30;99.90;;;;;;5072825;28;20754;-84
2023/03/23 03:19:03;;;;;;;0.20;0.20;;;10.30;99.90;;;;;;5072717;28;20044;-83
2023/03/23 03:21:35;;;;;;;0.63;0.10;;;10.30;99.90;;;;;;5072155;28;20132;-83
2023/03/23 03:24:03;;;;;;;0.20;0.20;;;10.30;99.90;;;;;;5057147;28;20107;-83
2023/03/23 03:26:32;;;;;;;0.20;0.20;;;10.30;99.90;;;;;;5052364;28;20124;-83
2023/03/23 03:28:58;;;;;;;0.20;0.15;;;10.30;99.90;;;;;;5050811;28;20075;-83
2023/03/23 03:31:29;;;;;;;0.00;0.00;;;10.40;99.90;;;;;;5052053;28;20037;-83
2023/03/23 03:33:55;;;;;;;0.00;0.00;;;10.50;99.90;;;;;;5065272;28;20117;-83
2023/03/23 03:36:25;;;;;;;0.65;0.47;;;10.50;99.90;;;;;;5071194;28;20044;-83
2023/03/23 03:38:51;;;;;;;0.65;0.45;;;10.40;99.90;;;;;;5071043;28;20484;-83
2023/03/23 03:41:19;;;;;;;0.28;0.20;;;11.30;99.90;;;;;;5052593;28;20087;-83
2023/03/23 03:43:45;;;;;;;0.57;0.28;;;10.40;99.90;;;;;;5050824;28;20119;-83
2023/03/23 03:46:11;;;;;;;0.35;0.20;;;10.40;99.90;;;;;;5051164;28;20110;-84
2023/03/23 03:48:37;;;;;;;1.02;0.75;;;10.40;99.90;;;;;;5049742;28;20053;-84
2023/03/23 03:51:03;;;;;;;0.25;0.15;;;10.40;99.90;;;;;;5049764;28;20043;-83
2023/03/23 03:53:30;;;;;;;0.00;0.00;;;10.40;99.90;;;;;;5061347;28;20048;-84
2023/03/23 03:55:59;;;;;;;0.45;0.45;;;10.30;99.90;;;;;;5071488;28;20048;-83
2023/03/23 03:58:31;;;;;;;1.08;0.40;;;10.30;99.90;;;;;;5070269;28;20079;-84
2023/03/23 04:00:58;;;;;;;0.10;0.10;;;10.20;99.90;;;;;;5071798;28;20094;-83
2023/03/23 04:03:26;;;;;;;0.00;0.00;;;10.30;99.90;;;;;;5060750;28;20094;-83
2023/03/23 04:05:54;;;;;;;2.63;0.17;;;10.30;99.90;;;;;;5051423;28;20057;-83
2023/03/23 04:08:22;;;;;;;0.35;0.35;;;10.30;99.90;;;;;;5051042;28;20071;-83
2023/03/23 04:10:48;;;;;;;0.00;0.00;;;10.20;99.90;;;;;;5065973;28;20547;-84
2023/03/23 04:13:14;;;;;;;0.25;0.25;;;10.20;99.90;;;;;;5063656;28;20457;-83
2023/03/23 04:15:39;;;;;;;0.00;0.00;;;10.20;99.90;;;;;;5052614;28;20037;-83
2023/03/23 04:18:05;;;;;;;0.20;0.20;;;10.20;99.90;;;;;;5052810;28;20045;-83
2023/03/23 04:20:32;;;;;;;0.35;0.32;;;10.20;99.90;;;;;;5052153;28;20044;-84
2023/03/23 04:23:00;;;;;;;0.15;0.15;;;10.30;99.90;;;;;;5052328;28;20040;-84
2023/03/23 04:25:27;;;;;;;0.43;0.22;;;10.30;99.90;;;;;;5051220;28;20080;-84
2023/03/23 04:27:54;;;;;;;0.10;0.10;;;10.50;99.90;;;;;;5051258;28;20049;-84
2023/03/23 04:30:24;;;;;;;1.08;1.00;;;10.60;99.90;;;;;;5050761;28;20486;-84
2023/03/23 04:32:51;;;;;;;0.00;0.00;;;11.00;99.90;;;;;;5050910;28;20045;-84
2023/03/23 04:35:19;;;;;;;0.32;0.30;;;10.50;99.90;;;;;;5049213;28;20052;-84
2023/03/23 04:37:46;;;;;;;0.35;0.20;;;10.50;99.90;;;;;;5051242;28;20111;-83
2023/03/23 04:40:14;;;;;;;1.38;0.73;;;10.50;99.90;;;;;;5052271;28;20056;-84
2023/03/23 04:42:47;;;;;;;1.77;0.55;;;10.40;99.90;;;;;;5069046;28;20084;-84
2023/03/23 04:45:15;;;;;;;1.35;0.93;;;10.50;99.90;;;;;;5050975;28;20049;-84
2023/03/23 04:47:41;;;;;;;0.03;0.03;;;10.50;99.90;;;;;;5048666;28;20084;-84
2023/03/23 04:50:10;;;;;;;0.00;0.00;;;10.50;99.90;;;;;;5049168;28;20040;-85
2023/03/23 04:52:37;;;;;;;0.20;0.15;;;10.40;99.90;;;;;;5054548;28;20376;-85
2023/03/23 04:55:05;;;;;;;0.40;0.32;;;10.60;99.90;;;;;;5069239;28;20049;-85
2023/03/23 04:57:31;;;;;;;0.55;0.45;;;10.10;99.90;;;;;;5068059;28;20070;-85
2023/03/23 04:59:57;;;;;;;0.08;0.08;;;10.10;99.90;;;;;;5056283;28;20053;-85
2023/03/23 05:02:25;;;;;;;0.00;0.00;;;10.10;99.90;;;;;;5047670;28;20098;-86
2023/03/23 05:04:51;;;;;;;0.05;0.03;;;10.10;99.90;;;;;;5047826;28;20411;-85
2023/03/23 05:07:16;;;;;;;0.00;0.00;;;10.00;99.90;;;;;;5047123;28;20098;-85
2023/03/23 05:09:47;;;;;;;2.13;1.13;;;9.90;99.90;;;;;;5047986;28;20041;-85
2023/03/23 05:12:12;;;;;;;0.00;0.00;;;9.80;99.90;;;;;;5048128;28;20053;-85
2023/03/23 05:14:41;;;;;;;1.60;1.20;;;9.80;99.90;;;;;;5048289;28;20055;-85
2023/03/23 05:17:07;;;;;;;0.00;0.00;;;9.80;99.90;;;;;;5048457;28;20056;-85
2023/03/23 05:19:33;;;;;;;0.30;0.30;;;9.80;99.90;;;;;;5046335;28;20060;-85
2023/03/23 05:22:02;;;;;;;1.20;0.47;;;9.70;99.90;;;;;;5048259;28;20037;-86
2023/03/23 05:24:31;;;;;;;0.00;0.00;;;10.70;99.90;;;;;;5048918;28;20079;-86
2023/03/23 05:26:57;;;;;;;0.20;0.20;;;9.80;99.90;;;;;;5061579;28;20079;-85
2023/03/23 05:29:23;;;;;;;0.10;0.10;;;9.80;99.90;;;;;;5056895;28;20821;-85
2023/03/23 05:31:49;;;;;;;0.32;0.32;;;9.60;99.90;;;;;;5049103;28;20502;-86
2023/03/23 05:34:15;;;;;;;0.00;0.00;;;9.60;99.90;;;;;;5049550;28;20048;-86
2023/03/23 05:36:43;;;;;;;0.38;0.35;;;10.80;99.90;;;;;;5050086;28;20060;-86
2023/03/23 05:39:10;;;;;;;0.10;0.10;;;10.50;99.90;;;;;;5053680;28;20048;-87
2023/03/23 05:41:37;;;;;;;0.20;0.20;;;9.60;99.90;;;;;;5050942;28;20056;-86
2023/03/23 05:44:03;;;;;;;0.13;0.10;;;10.40;99.90;;;;;;5052720;28;20067;-86
2023/03/23 05:46:29;;;;;;;0.00;0.00;;;9.60;99.90;;;;;;5052363;28;20049;-87
2023/03/23 05:48:54;;;;;;;1.35;0.75;;;9.70;99.90;;;;;;5052714;28;20041;-86
2023/03/23 05:51:20;;;;;;;0.20;0.20;;;9.70;99.90;;;;;;5053001;28;20092;-87
2023/03/23 05:53:47;;;;;;;0.03;0.03;;;9.70;99.90;;;;;;5052449;28;20045;-87
2023/03/23 05:56:12;;;;;;;0.15;0.15;;;9.70;99.90;;;;;;5052737;28;20522;-87
2023/03/23 05:58:38;;;;;;;0.03;0.03;;;9.70;99.90;;;;;;5052022;28;20175;-87
2023/03/23 06:01:07;;;;;;;0.08;0.08;;;9.70;99.90;;;;;;5052342;28;20041;-87
2023/03/23 06:03:35;;;;;;;1.80;1.42;;;9.70;99.90;;;;;;5052643;28;20040;-87
2023/03/23 06:06:03;;;;;;;0.35;0.25;;;9.80;99.90;;;;;;5052858;28;20124;-87
2023/03/23 06:08:29;;;;;;;0.00;0.00;;;9.80;99.90;;;;;;5052484;28;20498;-88
2023/03/23 06:10:55;;;;;;;1.63;1.52;;;9.80;99.90;;;;;;5052680;28;20048;-87
2023/03/23 06:13:21;;;;;;;0.20;0.20;;;9.80;99.90;;;;;;5052694;28;20052;-88
2023/03/23 06:15:47;;;;;;;0.15;0.15;;;9.90;99.90;;;;;;5052790;28;20155;-88
2023/03/23 06:18:13;;;;;;;0.00;0.00;;;9.90;99.90;;;;;;5053115;28;20088;-88
2023/03/23 06:20:40;;;;;;;16.35;1.55;;;9.90;99.90;;;;;;5052274;28;20059;-88
2023/03/23 06:23:06;;;;;;;0.40;0.40;;;10.00;99.90;;;;;;5053070;28;20091;-88
2023/03/23 06:25:32;;;;;;;0.00;0.00;;;10.00;99.90;;;;;;5053697;28;20118;-88
2023/03/23 06:27:58;;;;;;;0.00;0.00;;;10.00;99.90;;;;;;5053067;28;20059;-88
2023/03/23 06:30:26;;;;;;;0.57;0.55;;;10.80;99.90;;;;;;5052986;28;20526;-88
2023/03/23 06:32:52;;;;;;;0.20;0.20;;;10.00;99.90;;;;;;5051987;28;20441;-88
2023/03/23 06:35:18;;;;;;;2.35;0.65;;;9.90;99.90;;;;;;5052844;28;20064;-88
2023/03/23 06:37:44;;;;;;;1.23;0.82;;;9.90;99.90;;;;;;5053269;28;20049;-88
2023/03/23 06:40:10;;;;;;;1.48;1.38;;;11.10;99.90;;;;;;5053182;28;20048;-88
2023/03/23 06:42:36;;;;;;;0.13;0.10;;;10.00;99.90;;;;;;5051533;28;20136;-88
2023/03/23 06:45:03;;;;;;;0.32;0.22;;;10.50;99.90;;;;;;5051587;28;20108;-89
2023/03/23 06:47:30;;;;;;;0.68;0.68;;;10.00;99.90;;;;;;5049259;28;20051;-88
2023/03/23 06:49:57;;;;;;;0.32;0.32;;;10.00;99.90;;;;;;5051931;28;20075;-88
2023/03/23 06:52:24;;;;;;;0.15;0.10;;;10.00;99.90;;;;;;5051118;28;20510;-88
2023/03/23 06:54:50;;;;;;;3.90;1.45;;;10.00;99.90;;;;;;5047522;28;20045;-88
2023/03/23 06:57:16;;;;;;;0.38;0.38;;;10.50;99.90;;;;;;5043751;28;20088;-88
2023/03/23 06:59:43;;;;;;;1.13;0.90;;;10.10;99.90;;;;;;5044861;28;20080;-88
2023/03/23 07:02:11;;;;;;;0.05;0.05;;;10.20;99.90;;;;;;5044788;28;20053;-89
2023/03/23 07:04:40;;;;;;;0.13;0.13;;;10.20;99.90;;;;;;5044663;28;20080;-88
2023/03/23 07:07:09;;;;;;;0.00;0.00;;;11.00;99.90;;;;;;5044516;28;20051;-88
2023/03/23 07:09:34;;;;;;;0.00;0.00;;;10.40;99.90;;;;;;5043242;28;20110;-88
2023/03/23 07:12:00;;;;;;;0.40;0.40;;;10.70;99.90;;;;;;5044482;28;20044;-88
2023/03/23 07:14:26;;;;;;;0.00;0.00;;;10.30;99.90;;;;;;5043059;28;20083;-89
2023/03/23 07:16:53;;;;;;;1.88;1.27;;;10.30;99.90;;;;;;5044806;28;20063;-88
2023/03/23 07:19:19;;;;;;;0.30;0.30;;;10.30;99.90;;;;;;5044139;28;20110;-89
2023/03/23 07:21:45;;;;;;;0.45;0.38;;;10.20;99.90;;;;;;5042806;28;20048;-89
2023/03/23 07:24:13;;;;;;;2.80;1.42;;;10.20;99.90;;;;;;5042346;28;20110;-88
2023/03/23 07:26:41;;;;;;;0.08;0.08;;;10.30;99.90;;;;;;5042308;28;20113;-88
2023/03/23 07:29:08;;;;;;;2.08;0.60;;;10.30;99.90;;;;;;5043526;28;20055;-88
2023/03/23 07:31:33;;;;;;;1.65;0.40;;;10.30;99.90;;;;;;5025990;28;20080;-88
2023/03/23 07:33:59;;;;;;;0.00;0.00;;;10.30;99.90;;;;;;5043922;28;20083;-88
2023/03/23 07:36:25;;;;;;;0.50;0.50;;;10.40;99.90;;;;;;5044009;28;20124;-88
2023/03/23 07:38:51;;;;;;;1.00;0.50;;;11.40;99.90;;;;;;5043746;28;20053;-88
2023/03/23 07:41:17;;;;;;;0.32;0.32;;;10.30;99.90;;;;;;5042394;28;20072;-88
2023/03/23 07:43:43;;;;;;;0.43;0.43;;;10.40;99.90;;;;;;5043418;28;20057;-89
2023/03/23 07:46:09;;;;;;;1.02;0.65;;;10.40;99.90;;;;;;5043544;28;20159;-88
2023/03/23 07:48:34;;;;;;;16.15;3.10;;;10.50;99.90;;;;;;5043633;28;20080;-88
2023/03/23 07:51:00;;;;;;;0.90;0.75;;;10.60;99.90;;;;;;5043914;28;20057;-88
2023/03/23 07:53:26;;;;;;;0.20;0.20;;;10.70;99.90;;;;;;5041357;28;20063;-88
2023/03/23 07:55:52;;;;;;;0.00;0.00;;;11.20;99.90;;;;;;5042950;28;20075;-88
2023/03/23 07:58:20;;;;;;;0.90;0.52;;;11.00;99.90;;;;;;5041442;28;20057;-88
2023/03/23 08:00:48;;;;;;;0.00;0.00;;;11.20;99.90;;;;;;5040608;28;20110;-88
2023/03/23 08:03:15;;;;;;;1.02;0.55;;;11.40;70.50;;;;;;5042827;28;20044;-88
2023/03/23 08:05:42;;;;;;;0.30;0.30;;;11.50;99.90;;;;;;5043237;28;20092;-88
2023/03/23 08:08:09;;;;;;;1.77;0.57;;;11.60;1.00;;;;;;5040968;28;20060;-88
2023/03/23 08:10:35;;;;;;;0.05;0.05;;;11.70;99.90;;;;;;5041309;28;20056;-88
2023/03/23 08:13:02;;;;;;;0.63;0.50;;;11.80;86.00;;;;;;5042434;28;20041;-88
2023/03/23 08:15:28;;;;;;;0.20;0.08;;;11.90;99.90;;;;;;5040744;28;20061;-88
2023/03/23 08:17:54;;;;;;;0.30;0.30;;;11.90;99.90;;;;;;5042906;28;20041;-88
2023/03/23 08:20:25;;;;;;;1.02;0.47;;;11.90;1.00;;;;;;5042358;28;20045;-88
2023/03/23 08:22:53;;;;;;;0.82;0.63;;;12.00;99.90;;;;;;5042588;28;20518;-88
2023/03/23 08:25:19;;;;;;;1.75;1.45;;;12.10;99.90;;;;;;5042253;28;20055;-88
2023/03/23 08:27:45;;;;;;;0.13;0.13;;;12.20;2.20;;;;;;5042442;28;20543;-87
2023/03/23 08:30:14;;;;;;;1.63;0.90;;;12.20;1.00;;;;;;5042652;28;20057;-87
2023/03/23 08:32:40;;;;;;;3.33;0.57;;;12.20;71.80;;;;;;5041742;28;20158;-88
2023/03/23 08:35:08;;;;;;;0.47;0.47;;;12.30;99.90;;;;;;5042290;28;20449;-87
2023/03/23 08:37:35;;;;;;;25.33;1.90;;;12.30;99.90;;;;;;5041636;28;20045;-88
2023/03/23 08:40:06;;;;;;;0.20;0.17;;;12.40;99.90;;;;;;5042403;28;20069;-87
2023/03/23 08:42:32;;;;;;;0.00;0.00;;;12.50;99.90;;;;;;5042124;28;20705;-88
2023/03/23 08:44:58;;;;;;;6.53;1.52;;;12.40;99.90;;;;;;5041911;28;20037;-88
2023/03/23 08:47:25;;;;;;;0.30;0.20;;;12.30;99.90;;;;;;5042185;28;20103;-87
2023/03/23 08:49:53;;;;;;;2.05;1.02;;;12.20;99.90;;;;;;5041756;28;20450;-87
2023/03/23 08:52:19;;;;;;;1.95;1.13;;;12.20;99.90;;;;;;5043261;28;20490;-87
2023/03/23 08:54:47;;;;;;;0.13;0.10;;;13.10;99.90;;;;;;5042360;28;20128;-87
2023/03/23 08:57:14;;;;;;;2.85;0.85;;;12.00;1.00;;;;;;5043571;28;20044;-87
2023/03/23 08:59:41;;;;;;;2.65;1.25;;;12.20;1.00;;;;;;5046226;28;20044;-87
2023/03/23 09:02:11;;;;;;;1.88;1.67;;;12.30;99.90;;;;;;5046806;28;20052;-87
2023/03/23 09:04:43;;;;;;;1.08;0.98;;;12.50;99.90;;;;;;5045564;28;20411;-87
2023/03/23 09:07:14;;;;;;;10.88;1.23;;;12.90;99.90;;;;;;5043669;28;20365;-87
2023/03/23 09:09:41;;;;;;;2.92;2.10;;;13.10;1.00;;;;;;5039663;28;20136;-88
2023/03/23 09:12:08;;;;;;;2.92;1.65;;;13.90;99.90;;;;;;5044839;28;20047;-86
2023/03/23 09:14:38;;;;;;;2.20;1.35;;;13.40;99.90;;;;;;5045304;28;20041;-87
2023/03/23 09:17:04;;;;;;;3.28;1.63;;;13.10;99.90;;;;;;5044638;28;20045;-87
2023/03/23 09:19:33;;;;;;;5.20;2.10;;;13.00;99.90;;;;;;5045163;28;20037;-87
2023/03/23 09:21:58;;;;;;;3.88;0.98;;;13.20;99.90;;;;;;5045028;28;20048;-87
2023/03/23 09:24:25;;;;;;;3.67;1.33;;;13.60;99.90;;;;;;5046058;28;20670;-87
2023/03/23 09:26:50;;;;;;;2.65;1.55;;;14.30;99.90;;;;;;5046698;28;20459;-87
2023/03/23 09:29:18;;;;;;;11.38;3.20;;;15.30;93.50;;;;;;5046462;28;20131;-86
2023/03/23 09:31:46;;;;;;;1.02;0.73;;;15.90;1.00;;;;;;5043377;28;20111;-87
2023/03/23 09:34:15;;;;;;;0.63;0.50;;;16.10;1.00;;;;;;5046480;28;20049;-87
2023/03/23 09:36:41;;;;;;;0.30;0.30;;;16.50;1.00;;;;;;5043435;28;20502;-86
2023/03/23 09:39:09;;;;;;;0.80;0.70;;;16.60;99.90;;;;;;5046767;28;20044;-87
2023/03/23 09:42:02;;;;;;;0.98;0.55;;;17.70;99.90;;;;;;5046471;28;20049;-87
2023/03/23 09:45:01;;;;;;;1.75;1.13;;;16.70;99.90;;;;;;5046056;28;20057;-87
2023/03/23 09:47:57;;;;;;;0.52;0.40;;;16.80;99.90;;;;;;5046483;28;20053;-87
2023/03/23 09:50:31;;;;;;;4.60;0.98;;;17.40;99.90;;;;;;5046196;28;20122;-87
2023/03/23 09:53:19;;;;;;;1.73;1.30;;;17.70;99.90;;;;;;5046046;28;20057;-87
2023/03/23 09:55:45;;;;;;;4.43;0.90;;;17.90;99.90;;;;;;5045569;28;20402;-87
2023/03/23 09:58:43;;;;;;;3.92;1.48;;;17.80;99.90;;;;;;5045819;28;20049;-87
2023/03/23 10:01:18;;;;;;;5.13;1.08;;;17.10;99.90;;;;;;5045999;28;20138;-87
2023/03/23 10:03:46;;;;;;;0.65;0.60;;;17.00;99.90;;;;;;5046904;28;20059;-87
2023/03/23 10:06:17;;;;;;;4.18;1.80;;;17.30;99.90;;;;;;5045668;28;20049;-87
2023/03/23 10:08:57;;;;;;;0.77;0.60;;;17.00;99.90;;;;;;5043864;28;20049;-87
2023/03/23 10:11:41;;;;;;;4.35;0.70;;;16.90;99.90;;;;;;5044255;28;20061;-86
2023/03/23 10:14:16;;;;;;;0.03;0.03;;;16.60;99.90;;;;;;5045177;28;20056;-87
2023/03/23 10:17:13;;;;;;;2.17;0.75;;;16.20;99.90;;;;;;5045471;28;20052;-87
2023/03/23 10:20:07;;;;;;;2.45;1.00;;;16.20;99.90;;;;;;5044075;28;20521;-87
2023/03/23 10:22:39;;;;;;;0.82;0.60;;;16.60;99.90;;;;;;5042814;28;20502;-87
2023/03/23 10:25:14;;;;;;;0.80;0.75;;;16.20;99.90;;;;;;5045512;28;20053;-87
2023/03/23 10:28:01;;;;;;;7.50;1.58;;;15.90;99.90;;;;;;5044968;28;20084;-87
2023/03/23 10:30:32;;;;;;;;;;;15.40;99.90;;;;;;5045742;28;20402;-86
2023/03/23 10:33:11;;;;;;;0.10;0.10;;;15.20;99.90;;;;;;5045339;28;20039;-86
2023/03/23 10:35:47;;;;;;;0.52;0.45;;;15.60;99.90;;;;;;5044891;28;20521;-87
2023/03/23 10:38:16;;;;;;;;;;;16.20;99.90;;;;;;5045342;28;20103;-87
2023/03/23 10:41:24;;;;;;;4.53;0.80;;;16.50;99.90;;;;;;5045053;28;19932;-87
2023/03/23 10:43:52;;;;;;;0.20;0.20;;;16.30;99.90;;;;;;5043891;28;20048;-87
2023/03/23 10:46:39;;;;;;;1.30;1.00;;;16.50;99.90;;;;;;5044954;28;20536;-87
2023/03/23 10:49:10;;;;;;;0.38;0.38;;;16.70;99.90;;;;;;5044661;28;20036;-86
2023/03/23 10:51:41;;;;;;;2.53;1.17;;;17.00;99.90;;;;;;5044314;28;20407;-87
2023/03/23 10:54:07;;;;;;;1.02;1.00;;;17.40;99.90;;;;;;5044760;28;20056;-87
2023/03/23 10:56:41;;;;;;;0.80;0.80;;;17.80;99.90;;;;;;5044457;28;20052;-87
2023/03/23 10:59:21;;;;;;;1.00;0.80;;;18.00;99.90;;;;;;5042683;28;20049;-87
2023/03/23 11:01:50;;;;;;;6.05;0.77;;;17.90;99.90;;;;;;5042981;28;20398;-87
2023/03/23 11:04:18;;;;;;;4.00;1.38;;;17.90;99.90;;;;;;5044561;28;20124;-87
2023/03/23 11:06:52;;;;;;;0.57;0.28;;;18.10;99.90;;;;;;5044484;28;20060;-87
2023/03/23 11:09:33;;;;;;;0.00;0.00;;;17.30;99.90;;;;;;5043996;28;20391;-86
2023/03/23 11:11:58;;;;;;;0.85;0.68;;;17.30;97.60;;;;;;5044903;28;20402;-86
2023/03/23 11:14:30;;;;;;;0.68;0.52;;;16.70;84.30;;;;;;5044302;28;20053;-86
2023/03/23 11:17:06;;;;;;;0.93;0.75;;;15.90;74.40;;;;;;5044397;28;20049;-87
2023/03/23 11:19:37;;;;;;;1.50;0.65;;;15.60;75.80;;;;;;5044310;28;20372;-86
2023/03/23 11:22:04;;;;;;;0.57;0.52;;;15.30;65.80;;;;;;5043840;28;20049;-86
2023/03/23 11:24:43;;;;;;;0.52;0.52;;;15.70;69.50;;;;;;5044139;28;20052;-87
2023/03/23 11:27:10;;;;;;;14.70;1.10;;;15.10;77.60;;;;;;5043715;28;20580;-86
2023/03/23 11:29:43;;;;;;;0.65;0.38;;;15.10;80.80;;;;;;5043598;28;20044;-86
2023/03/23 11:32:12;;;;;;;0.13;0.13;;;16.10;77.10;;;;;;5044282;28;20629;-86
2023/03/23 11:34:41;;;;;;;0.65;0.50;;;15.30;81.30;;;;;;5043163;28;20052;-86
2023/03/23 11:37:29;;;;;;;0.32;0.30;;;15.60;84.40;;;;;;5043828;28;20065;-86
2023/03/23 11:40:01;;;;;;;3.83;1.75;;;15.10;77.90;;;;;;5043626;28;20057;-86
2023/03/23 11:42:37;;;;;;;0.90;0.32;;;15.20;84.40;;;;;;5043703;28;20085;-86
2023/03/23 11:45:17;;;;;;;2.17;0.47;;;15.30;91.20;;;;;;5043921;28;20047;-86
2023/03/23 11:47:48;;;;;;;2.28;1.13;;;15.60;95.00;;;;;;5044007;28;20561;-87
2023/03/23 11:50:23;;;;;;;0.30;0.10;;;16.70;89.10;;;;;;5042386;28;20445;-86
2023/03/23 11:53:32;;;;;;;0.70;0.43;;;15.60;76.40;;;;;;5043615;28;20045;-87
2023/03/23 11:56:19;;;;;;;0.00;0.00;;;15.40;61.10;;;;;;5041583;28;20057;-86
2023/03/23 11:58:45;;;;;;;2.92;0.80;;;15.40;65.60;;;;;;5043948;28;20045;-86
2023/03/23 12:01:33;;;;;;;0.17;0.17;;;15.50;67.40;;;;;;5043658;28;20151;-86
2023/03/23 12:04:16;;;;;;;0.80;0.68;;;15.40;66.70;;;;;;5043173;28;20498;-85
2023/03/23 12:06:57;;;;;;;0.65;0.57;;;15.40;59.40;;;;;;5043313;28;20063;-86
2023/03/23 12:09:57;;;;;;;1.88;1.10;;;15.50;64.20;;;;;;5043354;28;20037;-86
2023/03/23 12:12:32;;;;;;;2.90;0.95;;;15.20;55.80;;;;;;5041585;28;20048;-87
2023/03/23 12:15:04;;;;;;;0.00;0.00;;;15.30;56.90;;;;;;5043323;28;20403;-86
2023/03/23 12:17:44;;;;;;;0.55;0.47;;;15.60;57.80;;;;;;5043066;28;20124;-86
2023/03/23 12:20:21;;;;;;;37.88;3.38;;;15.20;65.20;;;;;;5042942;28;20044;-86
2023/03/23 12:22:55;;;;;;;2.22;1.55;;;15.80;61.40;;;;;;5041279;28;20060;-86
2023/03/23 12:25:43;;;;;;;8.10;3.25;;;16.10;81.20;;;;;;5042771;28;20049;-86
2023/03/23 12:28:20;;;;;;;0.25;0.20;;;16.60;56.30;;;;;;5042993;28;20060;-86
2023/03/23 12:31:15;;;;;;;0.50;0.43;;;16.80;25.90;;;;;;5043242;28;20376;-86
2023/03/23 12:34:04;;;;;;;0.77;0.38;;;17.00;22.70;;;;;;5042913;28;20049;-85
2023/03/23 12:36:55;;;;;;;0.20;0.20;;;17.10;18.70;;;;;;5043037;28;20446;-86
2023/03/23 12:39:48;;;;;;;4.57;0.40;;;17.40;24.70;;;;;;5043163;28;20525;-86
2023/03/23 12:42:39;;;;;;;0.40;0.38;;;17.50;22.60;;;;;;5042545;28;20101;-86
2023/03/23 12:45:43;;;;;;;0.47;0.47;;;17.20;4.60;;;;;;5043466;28;20053;-86
2023/03/23 12:48:20;;;;;;;17.52;1.00;;;17.30;14.40;;;;;;5042325;28;20463;-86
2023/03/23 12:51:16;;;;;;;0.47;0.35;;;17.40;20.00;;;;;;5042781;28;20100;-86
2023/03/23 12:53:51;;;;;;;2.75;0.43;;;16.80;1.00;;;;;;5041598;28;20093;-87
2023/03/23 12:56:41;;;;;;;0.25;0.25;;;16.40;1.00;;;;;;5041100;28;20153;-86
2023/03/23 12:59:22;;;;;;;6.75;0.75;;;16.30;1.00;;;;;;5042825;28;20045;-86
2023/03/23 13:01:54;;;;;;;1.48;0.95;;;16.30;1.00;;;;;;5042474;28;20133;-86
2023/03/23 13:04:29;;;;;;;1.25;0.85;;;16.40;1.00;;;;;;5042344;28;20052;-86
2023/03/23 13:06:57;;;;;;;0.75;0.68;;;16.20;1.00;;;;;;5042756;28;20095;-86
2023/03/23 13:10:09;;;;;;;2.25;1.00;;;17.40;1.00;;;;;;5042533;28;20041;-86